Time;durP1;ratioP1;P1;durP2;ratioP2;P2;SDS_P1;SDS_P2;PMS_P1;PMS_P2;Temp;Humidity;BMP_temperature;BMP_pressure;BME280_temperature;BME280_humidity;BME280_pressure;Samples;Min_cycle;Max_cycle;Signal;HPM_P1;HPM_P2
2023/03/14 00:00:10;;;;;;;8.02;1.60;;;11.80;99.90;;;;;;5030770;28;20191;-49
2023/03/14 00:02:36;;;;;;;7.80;1.90;;;11.80;99.90;;;;;;5029902;28;20187;-51
2023/03/14 00:05:06;;;;;;;3.35;1.40;;;11.80;99.90;;;;;;5029218;28;20210;-50
2023/03/14 00:07:34;;;;;;;8.45;2.00;;;11.70;99.90;;;;;;5030971;28;20222;-48
2023/03/14 00:10:01;;;;;;;8.10;2.53;;;11.80;99.90;;;;;;5034933;28;20171;-50
2023/03/14 00:12:27;;;;;;;7.80;2.30;;;11.80;99.90;;;;;;5034416;28;20159;-48
2023/03/14 00:14:53;;;;;;;3.60;1.50;;;11.90;99.90;;;;;;5034850;28;20528;-48
2023/03/14 00:17:18;;;;;;;8.02;2.10;;;11.80;99.90;;;;;;5033978;28;20674;-47
2023/03/14 00:19:44;;;;;;;6.70;1.42;;;11.90;99.90;;;;;;5032878;28;20171;-51
2023/03/14 00:22:09;;;;;;;8.43;2.03;;;12.00;99.90;;;;;;5034225;28;20255;-50
2023/03/14 00:24:35;;;;;;;10.13;2.05;;;12.00;99.90;;;;;;5034162;28;20191;-50
2023/03/14 00:27:00;;;;;;;3.38;1.67;;;12.00;99.90;;;;;;5033978;28;20206;-44
2023/03/14 00:29:26;;;;;;;11.80;2.55;;;12.10;99.90;;;;;;5034200;28;20195;-51
2023/03/14 00:31:51;;;;;;;8.60;1.83;;;12.10;99.90;;;;;;5033860;28;20195;-50
2023/03/14 00:34:17;;;;;;;5.50;1.63;;;12.10;99.90;;;;;;5034164;28;20202;-44
2023/03/14 00:36:44;;;;;;;4.60;2.00;;;12.10;99.90;;;;;;5032295;28;20702;-44
2023/03/14 00:39:09;;;;;;;4.95;1.30;;;12.20;99.90;;;;;;5033968;28;20243;-47
2023/03/14 00:41:35;;;;;;;5.32;0.95;;;11.80;99.90;;;;;;5033983;28;20171;-46
2023/03/14 00:44:00;;;;;;;1.02;0.70;;;11.00;99.90;;;;;;5033810;28;20176;-50
2023/03/14 00:46:26;;;;;;;5.28;0.63;;;10.50;99.90;;;;;;5034117;28;20175;-46
2023/03/14 00:48:51;;;;;;;3.10;0.95;;;10.20;99.90;;;;;;5034173;28;20171;-44
2023/03/14 00:51:17;;;;;;;2.40;0.73;;;10.10;99.90;;;;;;5033570;28;20544;-44
2023/03/14 00:53:43;;;;;;;3.30;0.90;;;10.00;99.90;;;;;;5033733;28;20525;-44
2023/03/14 00:56:11;;;;;;;5.88;1.52;;;10.10;99.90;;;;;;5033817;28;20241;-44
2023/03/14 00:58:37;;;;;;;4.25;1.27;;;10.10;99.90;;;;;;5033503;28;20171;-44
2023/03/14 01:01:12;;;;;;;6.57;1.50;;;10.20;99.90;;;;;;5033439;28;20662;-44
2023/03/14 01:03:37;;;;;;;5.47;1.65;;;10.30;99.90;;;;;;5033488;28;20197;-44
2023/03/14 01:06:13;;;;;;;5.25;1.30;;;10.30;99.90;;;;;;5033028;28;20634;-44
2023/03/14 01:08:38;;;;;;;4.43;1.02;;;10.30;99.90;;;;;;5033243;28;20199;-45
2023/03/14 01:11:13;;;;;;;3.30;1.20;;;10.60;99.90;;;;;;5033087;28;20169;-50
2023/03/14 01:13:39;;;;;;;5.30;1.48;;;10.30;99.90;;;;;;5033363;28;20253;-45
2023/03/14 01:16:07;;;;;;;2.13;0.90;;;10.30;99.90;;;;;;5033276;28;20175;-47
2023/03/14 01:18:34;;;;;;;3.45;0.77;;;10.30;99.90;;;;;;5032556;28;20697;-48
2023/03/14 01:21:01;;;;;;;3.55;1.33;;;10.30;99.90;;;;;;5033248;28;20164;-50
2023/03/14 01:23:26;;;;;;;4.45;1.38;;;10.30;99.90;;;;;;5032081;28;20175;-46
2023/03/14 01:25:52;;;;;;;2.25;0.80;;;10.30;99.90;;;;;;5033378;28;20175;-46
2023/03/14 01:28:17;;;;;;;2.75;1.17;;;10.30;99.90;;;;;;5033020;28;20174;-50
2023/03/14 01:30:43;;;;;;;0.90;0.70;;;10.30;99.90;;;;;;5032675;28;20191;-48
2023/03/14 01:33:09;;;;;;;5.20;1.40;;;10.30;99.90;;;;;;5032805;28;20627;-50
2023/03/14 01:35:34;;;;;;;5.28;1.35;;;10.40;99.90;;;;;;5033090;28;20270;-50
2023/03/14 01:38:00;;;;;;;5.05;1.52;;;10.30;99.90;;;;;;5032703;28;20663;-48
2023/03/14 01:40:25;;;;;;;6.55;1.98;;;10.40;99.90;;;;;;5032798;28;20167;-51
2023/03/14 01:43:04;;;;;;;6.82;1.73;;;10.40;99.90;;;;;;5032721;28;20180;-50
2023/03/14 01:45:57;;;;;;;4.40;1.73;;;10.30;99.90;;;;;;5032932;28;20535;-51
2023/03/14 01:48:24;;;;;;;5.82;1.75;;;10.30;99.90;;;;;;5033335;28;20366;-51
2023/03/14 01:50:50;;;;;;;9.00;2.95;;;10.30;99.90;;;;;;5032536;28;20163;-46
2023/03/14 01:53:17;;;;;;;3.88;1.58;;;10.30;99.90;;;;;;5032745;28;20232;-43
2023/03/14 01:55:42;;;;;;;4.75;1.70;;;10.30;99.90;;;;;;5032786;28;20179;-44
2023/03/14 01:58:09;;;;;;;4.03;2.08;;;10.30;99.90;;;;;;5032497;28;20203;-44
2023/03/14 02:00:34;;;;;;;6.65;1.67;;;10.30;99.90;;;;;;5032495;28;20176;-43
2023/03/14 02:03:10;;;;;;;8.27;2.55;;;10.40;99.90;;;;;;5032154;28;20178;-43
2023/03/14 02:05:40;;;;;;;7.93;1.65;;;10.30;99.90;;;;;;5032297;28;20182;-45
2023/03/14 02:08:09;;;;;;;3.00;1.42;;;10.40;99.90;;;;;;5032091;28;20215;-44
2023/03/14 02:10:41;;;;;;;3.20;1.42;;;10.40;99.90;;;;;;5032087;28;20179;-43
2023/03/14 02:13:07;;;;;;;3.28;1.30;;;10.40;99.90;;;;;;5032141;28;20186;-43
2023/03/14 02:15:34;;;;;;;4.35;1.52;;;10.40;99.90;;;;;;5032198;28;20171;-44
2023/03/14 02:18:01;;;;;;;4.65;1.83;;;10.40;99.90;;;;;;5032177;28;20290;-43
2023/03/14 02:20:47;;;;;;;5.55;1.80;;;10.40;99.90;;;;;;5032119;28;20225;-43
2023/03/14 02:23:16;;;;;;;6.50;1.77;;;10.40;99.90;;;;;;5032029;28;20179;-43
2023/03/14 02:26:03;;;;;;;7.28;1.75;;;10.40;99.90;;;;;;5031598;28;20225;-44
2023/03/14 02:28:28;;;;;;;5.43;2.17;;;10.40;99.90;;;;;;5031726;28;20185;-44
2023/03/14 02:30:54;;;;;;;7.25;2.45;;;10.40;99.90;;;;;;5031475;28;20246;-43
2023/03/14 02:33:21;;;;;;;5.68;1.73;;;10.40;99.90;;;;;;5031667;28;20571;-45
2023/03/14 02:36:04;;;;;;;12.30;3.25;;;10.40;99.90;;;;;;5031902;28;20167;-44
2023/03/14 02:39:11;;;;;;;8.55;3.53;;;10.40;99.90;;;;;;5031616;28;20214;-43
2023/03/14 02:41:37;;;;;;;8.55;3.00;;;10.40;99.90;;;;;;5030844;28;20186;-44
2023/03/14 02:44:03;;;;;;;9.77;2.95;;;10.40;99.90;;;;;;5031931;28;20179;-43
2023/03/14 02:46:28;;;;;;;10.35;2.70;;;10.40;99.90;;;;;;5031699;28;20226;-45
2023/03/14 02:49:10;;;;;;;8.43;2.90;;;10.40;99.90;;;;;;5032082;28;20167;-43
2023/03/14 02:51:37;;;;;;;11.18;2.50;;;10.40;99.90;;;;;;5031509;28;20177;-43
2023/03/14 02:54:02;;;;;;;6.20;3.53;;;10.40;99.90;;;;;;5031600;28;20685;-43
2023/03/14 02:56:28;;;;;;;3.75;1.75;;;10.40;99.90;;;;;;5031156;28;20187;-43
2023/03/14 02:58:53;;;;;;;5.85;2.40;;;10.40;99.90;;;;;;5031315;28;20183;-43
2023/03/14 03:01:19;;;;;;;8.32;2.65;;;10.40;99.90;;;;;;5029779;28;20174;-43
2023/03/14 03:03:45;;;;;;;8.50;3.00;;;10.40;99.90;;;;;;5030704;28;20167;-46
2023/03/14 03:06:10;;;;;;;8.77;2.30;;;10.50;99.90;;;;;;5031607;28;20179;-45
2023/03/14 03:08:36;;;;;;;7.15;1.88;;;10.40;99.90;;;;;;5031269;28;20195;-47
2023/03/14 03:11:02;;;;;;;5.68;2.35;;;10.50;99.90;;;;;;5031299;28;20182;-44
2023/03/14 03:13:27;;;;;;;6.72;2.50;;;10.50;99.90;;;;;;5031261;28;20623;-45
2023/03/14 03:15:53;;;;;;;6.80;2.10;;;10.50;99.90;;;;;;5031117;28;20179;-45
2023/03/14 03:18:19;;;;;;;4.50;2.00;;;10.40;99.90;;;;;;5030879;28;20574;-51
2023/03/14 03:20:45;;;;;;;2.08;1.25;;;10.30;99.90;;;;;;5031499;28;20187;-51
2023/03/14 03:23:11;;;;;;;5.03;1.70;;;10.30;99.90;;;;;;5031204;28;20167;-51
2023/03/14 03:25:37;;;;;;;4.65;1.23;;;10.20;99.90;;;;;;5031324;28;20570;-51
2023/03/14 03:28:07;;;;;;;5.65;1.63;;;10.20;99.90;;;;;;5031131;28;20174;-49
2023/03/14 03:30:42;;;;;;;3.40;1.65;;;10.20;99.90;;;;;;5031506;28;20186;-47
2023/03/14 03:33:09;;;;;;;3.47;1.60;;;10.30;99.90;;;;;;5031124;28;20178;-44
2023/03/14 03:35:35;;;;;;;5.70;2.92;;;10.20;99.90;;;;;;5030666;28;20171;-44
2023/03/14 03:38:00;;;;;;;6.18;2.13;;;10.20;99.90;;;;;;5030975;28;20286;-45
2023/03/14 03:40:26;;;;;;;9.75;2.55;;;10.30;99.90;;;;;;5030859;28;20600;-43
2023/03/14 03:42:52;;;;;;;9.70;2.60;;;10.30;99.90;;;;;;5034139;28;20250;-45
2023/03/14 03:45:17;;;;;;;6.20;2.08;;;10.20;99.90;;;;;;5034935;28;20237;-47
2023/03/14 03:47:43;;;;;;;4.07;1.52;;;10.20;99.90;;;;;;5034792;28;20598;-44
2023/03/14 03:50:09;;;;;;;5.78;1.65;;;10.20;99.90;;;;;;5034882;28;20172;-48
2023/03/14 03:52:35;;;;;;;7.05;1.75;;;10.10;99.90;;;;;;5034717;28;20199;-49
2023/03/14 03:55:00;;;;;;;6.25;2.10;;;10.00;99.90;;;;;;5034443;28;20207;-50
2023/03/14 03:57:26;;;;;;;7.45;2.22;;;10.00;99.90;;;;;;5034512;28;20211;-44
2023/03/14 03:59:51;;;;;;;6.20;2.03;;;10.00;99.90;;;;;;5033906;28;20221;-46
2023/03/14 04:02:17;;;;;;;5.88;2.10;;;10.00;99.90;;;;;;5034521;28;20265;-46
2023/03/14 04:04:42;;;;;;;9.73;3.75;;;10.10;99.90;;;;;;5034699;28;20250;-48
2023/03/14 04:07:09;;;;;;;4.65;2.00;;;10.20;99.90;;;;;;5034372;28;20242;-48
2023/03/14 04:09:34;;;;;;;8.02;3.60;;;10.20;99.90;;;;;;5034834;28;20266;-44
2023/03/14 04:12:00;;;;;;;7.65;3.13;;;10.30;99.90;;;;;;5034280;28;20602;-44
2023/03/14 04:14:25;;;;;;;8.07;3.05;;;10.30;99.90;;;;;;5034078;28;20660;-49
2023/03/14 04:16:51;;;;;;;8.88;4.10;;;10.30;99.90;;;;;;5034893;28;20249;-45
2023/03/14 04:19:16;;;;;;;8.90;3.53;;;10.30;99.90;;;;;;5034201;28;20202;-44
2023/03/14 04:21:46;;;;;;;5.90;2.88;;;10.30;99.90;;;;;;5034137;28;20211;-47
2023/03/14 04:24:12;;;;;;;5.03;2.13;;;10.30;99.90;;;;;;5034247;28;20239;-44
2023/03/14 04:26:38;;;;;;;9.13;2.35;;;10.40;99.90;;;;;;5034153;28;20637;-44
2023/03/14 04:29:03;;;;;;;5.65;2.85;;;10.40;99.90;;;;;;5034048;28;20843;-43
2023/03/14 04:31:29;;;;;;;6.97;2.97;;;10.40;99.90;;;;;;5034038;28;20645;-45
2023/03/14 04:33:54;;;;;;;7.70;1.85;;;10.40;99.90;;;;;;5034386;28;20206;-44
2023/03/14 04:36:20;;;;;;;1.98;1.25;;;10.40;99.90;;;;;;5033709;28;20183;-43
2023/03/14 04:38:45;;;;;;;5.88;1.63;;;10.40;99.90;;;;;;5033583;28;20221;-44
2023/03/14 04:41:11;;;;;;;3.10;1.70;;;10.40;99.90;;;;;;5033869;28;20261;-46
2023/03/14 04:43:37;;;;;;;7.13;2.72;;;10.40;99.90;;;;;;5033707;28;20637;-46
2023/03/14 04:46:02;;;;;;;4.68;1.80;;;10.40;99.90;;;;;;5033717;28;20178;-44
2023/03/14 04:48:28;;;;;;;3.45;2.28;;;10.40;99.90;;;;;;5033805;28;20163;-44
2023/03/14 04:50:54;;;;;;;5.97;2.55;;;10.40;99.90;;;;;;5034146;28;20175;-46
2023/03/14 04:53:20;;;;;;;7.55;3.35;;;10.40;99.90;;;;;;5032762;28;20168;-44
2023/03/14 04:55:54;;;;;;;2.33;1.50;;;10.40;99.90;;;;;;5033637;28;20171;-44
2023/03/14 04:58:20;;;;;;;7.10;3.28;;;10.40;99.90;;;;;;5033468;28;20225;-44
2023/03/14 05:00:46;;;;;;;6.53;3.03;;;10.40;99.90;;;;;;5033587;28;20171;-46
2023/03/14 05:03:14;;;;;;;3.58;2.08;;;10.40;99.90;;;;;;5033227;28;20167;-45
2023/03/14 05:05:39;;;;;;;4.13;1.67;;;10.40;99.90;;;;;;5033383;28;20528;-48
2023/03/14 05:08:05;;;;;;;5.07;2.20;;;10.50;99.90;;;;;;5033210;28;20219;-47
2023/03/14 05:10:30;;;;;;;3.42;1.38;;;10.40;99.90;;;;;;5033376;28;20570;-51
2023/03/14 05:12:56;;;;;;;3.10;1.52;;;10.40;99.90;;;;;;5032473;28;20205;-48
2023/03/14 05:15:21;;;;;;;3.63;1.10;;;10.50;99.90;;;;;;5032685;28;20205;-49
2023/03/14 05:17:48;;;;;;;2.60;1.40;;;10.50;99.90;;;;;;5033437;28;20555;-46
2023/03/14 05:20:14;;;;;;;3.00;1.05;;;10.50;99.90;;;;;;5033005;28;20298;-45
2023/03/14 05:22:40;;;;;;;3.35;1.58;;;10.50;99.90;;;;;;5032038;28;20598;-47
2023/03/14 05:25:07;;;;;;;4.05;2.33;;;10.50;99.90;;;;;;5033076;28;20728;-46
2023/03/14 05:27:33;;;;;;;2.30;1.40;;;10.50;99.90;;;;;;5033238;28;20212;-51
2023/03/14 05:29:59;;;;;;;4.82;1.95;;;10.50;99.90;;;;;;5031565;28;20262;-49
2023/03/14 05:32:24;;;;;;;3.17;1.52;;;10.50;99.90;;;;;;5033166;28;20666;-48
2023/03/14 05:34:50;;;;;;;0.77;0.57;;;10.50;99.90;;;;;;5032955;28;20505;-45
2023/03/14 05:37:15;;;;;;;0.40;0.40;;;10.40;99.90;;;;;;5032839;28;20686;-50
2023/03/14 05:39:41;;;;;;;1.92;0.32;;;10.40;99.90;;;;;;5032716;28;20541;-49
2023/03/14 05:42:06;;;;;;;0.52;0.52;;;10.40;99.90;;;;;;5032791;28;20225;-49
2023/03/14 05:44:32;;;;;;;0.65;0.47;;;10.40;99.90;;;;;;5032722;28;20198;-47
2023/03/14 05:46:57;;;;;;;1.15;0.25;;;10.40;99.90;;;;;;5032537;28;20171;-46
2023/03/14 05:49:23;;;;;;;0.20;0.20;;;10.30;99.90;;;;;;5032853;28;20173;-48
2023/03/14 05:51:48;;;;;;;0.30;0.30;;;10.30;99.90;;;;;;5032671;28;20167;-48
2023/03/14 05:54:14;;;;;;;1.45;0.35;;;10.30;99.90;;;;;;5032370;28;20174;-49
2023/03/14 05:56:40;;;;;;;0.43;0.43;;;10.30;99.90;;;;;;5032302;28;20167;-47
2023/03/14 05:59:07;;;;;;;0.20;0.20;;;10.20;99.90;;;;;;5032354;28;20277;-51
2023/03/14 06:01:33;;;;;;;0.63;0.25;;;10.20;99.90;;;;;;5032173;28;20171;-50
2023/03/14 06:03:59;;;;;;;1.75;0.38;;;10.30;99.90;;;;;;5032449;28;20543;-51
2023/03/14 06:06:24;;;;;;;0.13;0.13;;;10.20;99.90;;;;;;5032637;28;20217;-50
2023/03/14 06:08:50;;;;;;;0.45;0.25;;;10.20;99.90;;;;;;5032644;28;20228;-51
2023/03/14 06:11:16;;;;;;;0.82;0.40;;;10.20;99.90;;;;;;5032272;28;20254;-50
2023/03/14 06:13:41;;;;;;;0.45;0.45;;;10.20;99.90;;;;;;5031872;28;20627;-51
2023/03/14 06:16:07;;;;;;;0.70;0.40;;;10.20;99.90;;;;;;5032153;28;20624;-51
2023/03/14 06:18:33;;;;;;;0.50;0.50;;;10.30;99.90;;;;;;5032114;28;20211;-51
2023/03/14 06:20:59;;;;;;;0.30;0.30;;;10.30;99.90;;;;;;5032335;28;20170;-51
2023/03/14 06:23:25;;;;;;;1.75;0.35;;;10.30;99.90;;;;;;5030018;28;20178;-50
2023/03/14 06:25:51;;;;;;;0.52;0.15;;;10.40;99.90;;;;;;5030648;28;20535;-54
2023/03/14 06:28:17;;;;;;;0.45;0.40;;;10.30;99.90;;;;;;5031341;28;20702;-53
2023/03/14 06:30:42;;;;;;;0.68;0.65;;;10.40;99.90;;;;;;5029918;28;20193;-53
2023/03/14 06:33:08;;;;;;;0.43;0.43;;;10.40;99.90;;;;;;5031100;28;20171;-50
2023/03/14 06:35:34;;;;;;;1.20;0.68;;;10.40;99.90;;;;;;5031328;28;20626;-52
2023/03/14 06:37:59;;;;;;;1.75;0.60;;;10.40;99.90;;;;;;5031507;28;20242;-51
2023/03/14 06:40:25;;;;;;;1.70;0.50;;;10.50;99.90;;;;;;5029978;28;20172;-50
2023/03/14 06:42:51;;;;;;;2.78;0.52;;;10.50;99.90;;;;;;5031360;28;20198;-52
2023/03/14 06:45:17;;;;;;;1.73;0.70;;;10.60;99.90;;;;;;5031106;28;20206;-51
2023/03/14 06:47:42;;;;;;;0.17;0.05;;;10.50;99.90;;;;;;5031379;28;20187;-51
2023/03/14 06:50:09;;;;;;;0.50;0.40;;;10.60;99.90;;;;;;5029757;28;20175;-51
2023/03/14 06:52:35;;;;;;;0.70;0.35;;;10.50;99.90;;;;;;5030712;28;20222;-52
2023/03/14 06:55:01;;;;;;;0.70;0.60;;;10.50;99.90;;;;;;5031318;28;20199;-55
2023/03/14 06:57:27;;;;;;;2.53;0.40;;;10.60;99.90;;;;;;5030926;28;20252;-49
2023/03/14 06:59:53;;;;;;;1.30;0.65;;;10.50;99.90;;;;;;5031477;28;20691;-49
2023/03/14 07:02:18;;;;;;;0.30;0.30;;;10.60;99.90;;;;;;5031381;28;20270;-52
2023/03/14 07:04:44;;;;;;;2.35;0.60;;;10.60;99.90;;;;;;5030591;28;20170;-51
2023/03/14 07:07:09;;;;;;;0.30;0.30;;;10.60;99.90;;;;;;5029523;28;20225;-54
2023/03/14 07:09:35;;;;;;;1.23;0.30;;;10.70;99.90;;;;;;5030940;28;20170;-52
2023/03/14 07:12:01;;;;;;;1.95;0.22;;;10.70;99.90;;;;;;5030785;28;20199;-51
2023/03/14 07:14:26;;;;;;;0.30;0.30;;;10.70;99.90;;;;;;5030693;28;20167;-53
2023/03/14 07:16:52;;;;;;;1.42;0.43;;;10.70;99.90;;;;;;5030316;28;20230;-57
2023/03/14 07:19:18;;;;;;;0.40;0.40;;;10.70;99.90;;;;;;5030482;28;20179;-52
2023/03/14 07:21:43;;;;;;;0.88;0.40;;;10.80;99.90;;;;;;5030525;28;20242;-53
2023/03/14 07:24:09;;;;;;;1.27;0.70;;;10.80;99.90;;;;;;5031068;28;20178;-51
2023/03/14 07:26:35;;;;;;;3.70;1.13;;;10.80;99.90;;;;;;5030699;28;20246;-49
2023/03/14 07:29:03;;;;;;;1.67;1.33;;;10.90;99.90;;;;;;5030513;28;20567;-52
2023/03/14 07:31:28;;;;;;;1.30;0.60;;;10.90;99.90;;;;;;5030765;28;20182;-52
2023/03/14 07:33:54;;;;;;;1.25;0.68;;;10.90;99.90;;;;;;5030920;28;20167;-52
2023/03/14 07:36:20;;;;;;;1.63;0.85;;;10.90;99.90;;;;;;5029649;28;20174;-51
2023/03/14 07:38:45;;;;;;;0.90;0.50;;;10.90;99.90;;;;;;5030315;28;20282;-51
2023/03/14 07:41:11;;;;;;;0.30;0.30;;;11.00;99.90;;;;;;5030240;28;20171;-51
2023/03/14 07:43:36;;;;;;;0.00;0.00;;;11.00;99.90;;;;;;5029019;28;20175;-51
2023/03/14 07:46:02;;;;;;;0.10;0.10;;;11.00;99.90;;;;;;5030578;28;20619;-49
2023/03/14 07:48:28;;;;;;;0.43;0.43;;;11.00;99.90;;;;;;5030691;28;20242;-49
2023/03/14 07:50:55;;;;;;;0.28;0.28;;;11.00;99.90;;;;;;5030571;28;20539;-51
2023/03/14 07:53:22;;;;;;;0.30;0.30;;;11.00;99.90;;;;;;5030802;28;20168;-52
2023/03/14 07:55:47;;;;;;;1.02;0.40;;;11.10;99.90;;;;;;5030014;28;20508;-52
2023/03/14 07:58:13;;;;;;;0.05;0.05;;;11.10;99.90;;;;;;5030370;28;20234;-52
2023/03/14 08:00:39;;;;;;;0.45;0.30;;;11.10;99.90;;;;;;5029909;28;20175;-52
2023/03/14 08:03:05;;;;;;;0.68;0.45;;;11.20;99.90;;;;;;5030243;28;20186;-51
2023/03/14 08:05:30;;;;;;;0.50;0.32;;;11.20;99.90;;;;;;5030289;28;20214;-51
2023/03/14 08:07:56;;;;;;;0.47;0.47;;;11.20;99.90;;;;;;5030018;28;20222;-51
2023/03/14 08:10:22;;;;;;;0.75;0.30;;;11.30;99.90;;;;;;5030509;28;20576;-50
2023/03/14 08:12:49;;;;;;;0.93;0.70;;;11.30;99.90;;;;;;5030352;28;20172;-48
2023/03/14 08:15:15;;;;;;;0.45;0.40;;;11.20;99.90;;;;;;5030688;28;20166;-50
2023/03/14 08:17:41;;;;;;;0.13;0.13;;;11.20;99.90;;;;;;5030161;28;20670;-51
2023/03/14 08:20:08;;;;;;;0.40;0.40;;;11.20;99.90;;;;;;5029814;28;20206;-51
2023/03/14 08:22:34;;;;;;;0.95;0.65;;;11.10;99.90;;;;;;5030304;28;20179;-50
2023/03/14 08:24:59;;;;;;;1.05;0.70;;;11.10;99.90;;;;;;5030109;28;20167;-51
2023/03/14 08:27:25;;;;;;;0.82;0.45;;;11.10;99.90;;;;;;5029948;28;20167;-48
2023/03/14 08:29:50;;;;;;;0.85;0.85;;;11.00;99.90;;;;;;5032957;28;20541;-51
2023/03/14 08:32:16;;;;;;;0.68;0.40;;;11.00;99.90;;;;;;5033794;28;20217;-50
2023/03/14 08:34:41;;;;;;;0.65;0.55;;;11.10;99.90;;;;;;5033451;28;20168;-49
2023/03/14 08:37:07;;;;;;;1.02;0.45;;;11.20;99.90;;;;;;5033545;28;20195;-51
2023/03/14 08:39:33;;;;;;;1.20;0.60;;;11.30;99.90;;;;;;5033157;28;20278;-50
2023/03/14 08:41:58;;;;;;;0.40;0.30;;;11.30;99.90;;;;;;5031885;28;20558;-51
2023/03/14 08:44:24;;;;;;;0.60;0.60;;;11.20;99.90;;;;;;5033658;28;20178;-47
2023/03/14 08:46:49;;;;;;;1.05;0.65;;;11.20;99.90;;;;;;5032661;28;20182;-51
2023/03/14 08:49:15;;;;;;;1.10;0.50;;;11.10;99.90;;;;;;5033132;28;20176;-52
2023/03/14 08:51:40;;;;;;;1.50;0.73;;;11.10;99.90;;;;;;5033369;28;20172;-51
2023/03/14 08:54:09;;;;;;;1.70;0.68;;;11.10;99.90;;;;;;5033422;28;20249;-49
2023/03/14 08:56:37;;;;;;;2.92;0.55;;;11.10;99.90;;;;;;5033132;28;20190;-48
2023/03/14 08:59:03;;;;;;;0.50;0.30;;;11.10;99.90;;;;;;5033447;28;20191;-51
2023/03/14 09:01:28;;;;;;;0.68;0.40;;;11.00;99.90;;;;;;5033197;28;20168;-51
2023/03/14 09:03:54;;;;;;;1.00;0.50;;;11.00;99.90;;;;;;5033054;28;20171;-45
2023/03/14 09:06:20;;;;;;;3.25;0.63;;;10.90;99.90;;;;;;5033338;28;20627;-51
2023/03/14 09:08:45;;;;;;;0.68;0.68;;;11.00;99.90;;;;;;5033146;28;20250;-50
2023/03/14 09:11:11;;;;;;;0.85;0.43;;;11.00;99.90;;;;;;5032488;28;20182;-51
2023/03/14 09:13:37;;;;;;;0.40;0.40;;;11.20;99.90;;;;;;5032735;28;20605;-49
2023/03/14 09:16:03;;;;;;;0.95;0.50;;;11.20;99.90;;;;;;5031571;28;20214;-50
2023/03/14 09:18:29;;;;;;;1.23;0.30;;;11.20;99.90;;;;;;5032711;28;20202;-50
2023/03/14 09:20:55;;;;;;;0.40;0.30;;;10.60;99.90;;;;;;5033008;28;20524;-47
2023/03/14 09:23:21;;;;;;;0.20;0.20;;;10.10;99.90;;;;;;5033106;28;20174;-50
2023/03/14 09:25:46;;;;;;;0.82;0.20;;;10.00;99.90;;;;;;5032531;28;20164;-51
2023/03/14 09:28:12;;;;;;;0.52;0.30;;;10.00;99.90;;;;;;5032586;28;20168;-49
2023/03/14 09:30:38;;;;;;;1.63;0.60;;;9.80;99.90;;;;;;5032856;28;20186;-47
2023/03/14 09:33:04;;;;;;;0.20;0.20;;;9.70;99.90;;;;;;5032447;28;20687;-45
2023/03/14 09:35:29;;;;;;;1.27;0.47;;;9.50;99.90;;;;;;5032511;28;20509;-50
2023/03/14 09:37:55;;;;;;;0.68;0.68;;;9.40;99.90;;;;;;5032124;28;20302;-49
2023/03/14 09:40:21;;;;;;;0.77;0.75;;;9.50;99.90;;;;;;5032214;28;20242;-45
2023/03/14 09:42:54;;;;;;;0.90;0.90;;;9.40;99.90;;;;;;5032300;28;20168;-44
2023/03/14 09:45:29;;;;;;;0.88;0.77;;;9.30;99.90;;;;;;5032634;28;20235;-45
2023/03/14 09:47:56;;;;;;;0.70;0.70;;;9.20;99.90;;;;;;5032146;28;20178;-44
2023/03/14 09:50:23;;;;;;;0.70;0.70;;;9.30;99.90;;;;;;5032595;28;20543;-46
2023/03/14 09:52:55;;;;;;;1.00;0.73;;;9.40;99.90;;;;;;5032841;28;20176;-45
2023/03/14 09:55:22;;;;;;;0.77;0.77;;;9.50;99.90;;;;;;5032517;28;20682;-45
2023/03/14 09:57:52;;;;;;;0.77;0.77;;;9.60;99.90;;;;;;5014338;28;20538;-45
2023/03/14 10:00:21;;;;;;;1.27;1.17;;;9.40;99.90;;;;;;5031923;28;20635;-44
2023/03/14 10:03:06;;;;;;;0.77;0.77;;;9.10;99.90;;;;;;5032190;28;20171;-45
2023/03/14 10:05:31;;;;;;;2.55;1.20;;;9.10;99.90;;;;;;5031938;28;20171;-45
2023/03/14 10:07:57;;;;;;;1.20;1.20;;;10.90;99.90;;;;;;5031557;28;20219;-44
2023/03/14 10:10:25;;;;;;;1.10;1.05;;;8.80;99.90;;;;;;5032050;28;20177;-44
2023/03/14 10:13:11;;;;;;;1.70;1.00;;;8.90;99.90;;;;;;5031893;28;20182;-44
2023/03/14 10:15:37;;;;;;;2.85;1.13;;;8.80;99.90;;;;;;5032035;28;20264;-45
2023/03/14 10:18:12;;;;;;;1.67;0.93;;;8.80;99.90;;;;;;5031682;28;20658;-45
2023/03/14 10:20:41;;;;;;;1.55;0.77;;;8.80;99.90;;;;;;5031786;28;20627;-44
2023/03/14 10:23:22;;;;;;;1.23;1.00;;;8.70;99.90;;;;;;5031612;28;20171;-45
2023/03/14 10:26:07;;;;;;;1.38;1.13;;;8.70;99.90;;;;;;5031740;28;20178;-45
2023/03/14 10:28:53;;;;;;;1.23;1.13;;;8.80;99.90;;;;;;5031072;28;20159;-44
2023/03/14 10:31:25;;;;;;;0.70;0.70;;;8.90;99.90;;;;;;5030764;28;20171;-46
2023/03/14 10:34:02;;;;;;;4.22;0.95;;;8.90;99.90;;;;;;5031848;28;20629;-45
2023/03/14 10:36:31;;;;;;;1.10;1.10;;;8.70;99.90;;;;;;5031428;28;20167;-45
2023/03/14 10:39:15;;;;;;;0.70;0.70;;;8.70;99.90;;;;;;5030827;28;20198;-44
2023/03/14 10:41:47;;;;;;;0.60;0.60;;;8.70;99.90;;;;;;5031069;28;20164;-45
2023/03/14 10:44:17;;;;;;;0.68;0.47;;;8.70;99.90;;;;;;5031138;28;20813;-44
2023/03/14 10:46:42;;;;;;;1.52;1.42;;;8.70;99.90;;;;;;5031170;28;20171;-45
2023/03/14 10:49:27;;;;;;;1.20;0.90;;;8.80;99.90;;;;;;5030842;28;20195;-44
2023/03/14 10:51:52;;;;;;;1.08;0.65;;;8.70;99.90;;;;;;5031039;28;20171;-44
2023/03/14 10:54:23;;;;;;;2.63;0.95;;;9.00;99.90;;;;;;5030989;28;20657;-44
2023/03/14 10:57:00;;;;;;;1.10;1.00;;;9.10;99.90;;;;;;5031618;28;20171;-45
2023/03/14 10:59:34;;;;;;;1.10;0.90;;;9.20;99.90;;;;;;5030852;28;20700;-45
2023/03/14 11:02:15;;;;;;;1.90;1.23;;;9.10;99.90;;;;;;5030959;28;20171;-44
2023/03/14 11:05:06;;;;;;;1.30;1.20;;;9.20;99.90;;;;;;5030861;28;20171;-45
2023/03/14 11:07:43;;;;;;;2.75;1.60;;;9.20;99.90;;;;;;5030904;28;20211;-44
2023/03/14 11:10:24;;;;;;;1.63;1.33;;;9.40;99.90;;;;;;5030633;28;20174;-44
2023/03/14 11:13:25;;;;;;;1.40;1.27;;;9.20;99.90;;;;;;5031202;28;20168;-44
2023/03/14 11:16:24;;;;;;;1.75;1.35;;;9.40;99.90;;;;;;5027727;28;20176;-44
2023/03/14 11:19:20;;;;;;;1.38;1.27;;;9.30;99.90;;;;;;5029956;28;20563;-45
2023/03/14 11:22:22;;;;;;;2.67;1.67;;;9.60;99.90;;;;;;5030481;28;20171;-45
2023/03/14 11:25:06;;;;;;;1.70;1.60;;;9.90;99.90;;;;;;5030571;28;20185;-46
2023/03/14 11:27:43;;;;;;;0.50;0.50;;;9.60;99.90;;;;;;5030327;28;20167;-44
2023/03/14 11:30:25;;;;;;;1.42;0.30;;;8.70;99.90;;;;;;5031078;28;20249;-44
2023/03/14 11:33:10;;;;;;;1.55;1.27;;;7.80;99.90;;;;;;5031411;28;20516;-44
2023/03/14 11:35:43;;;;;;;1.67;0.75;;;7.60;99.90;;;;;;5030982;28;20195;-44
2023/03/14 11:38:35;;;;;;;0.55;0.55;;;7.60;99.90;;;;;;5030967;28;20469;-44
2023/03/14 11:41:01;;;;;;;4.47;1.30;;;7.50;99.90;;;;;;5016994;28;20239;-44
2023/03/14 11:43:36;;;;;;;0.90;0.90;;;7.60;99.90;;;;;;5030739;28;20170;-44
2023/03/14 11:46:26;;;;;;;2.05;1.08;;;7.50;99.90;;;;;;5031075;28;20256;-45
2023/03/14 11:49:18;;;;;;;2.40;1.30;;;7.50;99.90;;;;;;5030899;28;20183;-45
2023/03/14 11:51:46;;;;;;;3.63;1.20;;;7.60;99.90;;;;;;5030484;28;20184;-44
2023/03/14 11:54:46;;;;;;;2.58;1.50;;;7.60;99.90;;;;;;5030877;28;20175;-45
2023/03/14 11:57:14;;;;;;;2.13;1.17;;;7.60;99.90;;;;;;5030871;28;20207;-45
2023/03/14 11:59:58;;;;;;;2.90;1.23;;;7.70;99.90;;;;;;5030686;28;20203;-44
2023/03/14 12:02:29;;;;;;;2.78;1.00;;;8.10;99.90;;;;;;5031115;28;20166;-45
2023/03/14 12:05:25;;;;;;;4.47;1.95;;;8.20;99.90;;;;;;5034564;28;20164;-45
2023/03/14 12:08:03;;;;;;;3.45;0.98;;;8.20;99.90;;;;;;5034893;28;20228;-45
2023/03/14 12:10:29;;;;;;;2.45;1.17;;;8.20;99.90;;;;;;5034061;28;20720;-46
2023/03/14 12:12:55;;;;;;;2.20;0.90;;;8.10;99.90;;;;;;5034629;28;20163;-44
2023/03/14 12:15:23;;;;;;;1.58;1.20;;;8.00;99.90;;;;;;5034538;28;20171;-45
2023/03/14 12:17:54;;;;;;;2.00;0.98;;;8.00;99.90;;;;;;5034612;28;20609;-45
2023/03/14 12:20:25;;;;;;;1.40;0.90;;;7.80;99.90;;;;;;5034953;28;20176;-46
2023/03/14 12:22:56;;;;;;;2.25;0.75;;;7.80;99.90;;;;;;5034529;28;20202;-45
2023/03/14 12:25:24;;;;;;;1.55;0.80;;;7.80;99.90;;;;;;5034637;28;20175;-46
2023/03/14 12:28:15;;;;;;;0.90;0.75;;;7.70;99.90;;;;;;5034493;28;20171;-45
2023/03/14 12:30:41;;;;;;;1.08;0.70;;;7.70;99.90;;;;;;5034091;28;20194;-45
2023/03/14 12:33:20;;;;;;;1.85;0.70;;;7.60;99.90;;;;;;5033982;28;20174;-45
2023/03/14 12:35:51;;;;;;;3.03;1.15;;;7.70;99.90;;;;;;5033950;28;20243;-45
2023/03/14 12:38:39;;;;;;;1.15;0.73;;;7.60;99.90;;;;;;5033823;28;20293;-50
2023/03/14 12:41:28;;;;;;;2.45;1.10;;;7.60;99.90;;;;;;5033779;28;20556;-46
2023/03/14 12:43:54;;;;;;;3.53;1.52;;;7.70;99.90;;;;;;5032279;28;20163;-46
2023/03/14 12:46:21;;;;;;;2.15;0.77;;;7.90;99.90;;;;;;5034265;28;20164;-45
2023/03/14 12:49:00;;;;;;;5.13;1.25;;;7.70;99.90;;;;;;5033939;28;20175;-45
2023/03/14 12:51:40;;;;;;;1.83;1.02;;;7.70;99.90;;;;;;5031641;28;20179;-45
2023/03/14 12:54:21;;;;;;;1.95;1.00;;;7.70;99.90;;;;;;5033900;28;20258;-46
2023/03/14 12:57:18;;;;;;;2.72;0.90;;;7.80;99.90;;;;;;5033454;28;20206;-45
2023/03/14 12:59:53;;;;;;;3.03;1.10;;;7.90;99.90;;;;;;5027803;28;20187;-47